createdAt,value
2019-06-27T00:00:04.912Z,0
2019-06-27T00:01:05.583Z,0
2019-06-27T00:02:06.243Z,0
2019-06-27T00:03:06.905Z,0
2019-06-27T00:04:07.597Z,0
2019-06-27T00:05:08.294Z,0
2019-06-27T00:06:08.958Z,0
2019-06-27T00:07:09.632Z,0
2019-06-27T00:08:10.313Z,0
2019-06-27T00:09:10.975Z,0
2019-06-27T00:10:11.634Z,0
2019-06-27T00:11:12.341Z,0
2019-06-27T00:12:13.055Z,0
2019-06-27T00:13:13.722Z,0
2019-06-27T00:14:14.409Z,0
2019-06-27T00:15:15.076Z,0
2019-06-27T00:16:15.738Z,0
2019-06-27T00:17:16.403Z,0
2019-06-27T00:18:17.097Z,0
2019-06-27T00:19:17.760Z,0
2019-06-27T00:20:18.425Z,0
2019-06-27T00:21:19.121Z,0
2019-06-27T00:22:19.809Z,0
2019-06-27T00:23:20.502Z,0
2019-06-27T00:24:21.185Z,0
2019-06-27T00:25:21.874Z,0
2019-06-27T00:26:22.552Z,0
2019-06-27T00:27:23.215Z,0
2019-06-27T00:28:23.908Z,0
2019-06-27T00:29:24.608Z,0
2019-06-27T00:30:25.302Z,0
2019-06-27T00:31:25.997Z,0
2019-06-27T00:32:26.659Z,0
2019-06-27T00:33:27.451Z,0
2019-06-27T00:34:28.038Z,0
2019-06-27T00:35:28.731Z,0
2019-06-27T00:36:29.441Z,0
2019-06-27T00:37:30.118Z,0
2019-06-27T00:38:30.816Z,0
2019-06-27T00:39:31.510Z,0
2019-06-27T00:40:32.203Z,0
2019-06-27T00:41:32.896Z,0
2019-06-27T00:42:33.574Z,0
2019-06-27T00:43:34.235Z,0
2019-06-27T00:44:34.898Z,0
2019-06-27T00:45:35.568Z,0
2019-06-27T00:46:36.256Z,0
2019-06-27T00:47:36.950Z,0
2019-06-27T00:48:37.644Z,0
2019-06-27T00:49:38.338Z,0
2019-06-27T00:50:39.043Z,0
2019-06-27T00:51:39.723Z,0
2019-06-27T00:52:40.386Z,0
2019-06-27T00:53:41.047Z,0
2019-06-27T00:54:41.739Z,0
2019-06-27T00:55:42.436Z,0
2019-06-27T00:56:43.093Z,0
2019-06-27T00:57:43.833Z,0
2019-06-27T00:58:44.479Z,0
2019-06-27T00:59:45.194Z,0
2019-06-27T01:00:45.866Z,0
2019-06-27T01:01:46.580Z,0
2019-06-27T01:02:47.254Z,0
2019-06-27T01:03:47.961Z,0
2019-06-27T01:04:48.611Z,0
2019-06-27T01:05:49.303Z,0
2019-06-27T01:06:49.966Z,0
2019-06-27T01:07:50.627Z,0
2019-06-27T01:08:51.334Z,0
2019-06-27T01:09:52.029Z,0
2019-06-27T01:10:52.696Z,0
2019-06-27T01:11:53.378Z,0
2019-06-27T01:12:54.062Z,0
2019-06-27T01:13:54.742Z,0
2019-06-27T01:14:55.421Z,0
2019-06-27T01:15:56.121Z,0
2019-06-27T01:16:56.817Z,0
2019-06-27T01:17:57.521Z,0
2019-06-27T01:18:58.203Z,0
2019-06-27T01:19:58.884Z,0
2019-06-27T01:20:59.555Z,0
2019-06-27T01:22:00.263Z,0
2019-06-27T01:23:00.943Z,0
2019-06-27T01:24:01.658Z,0
2019-06-27T01:25:02.337Z,0
2019-06-27T01:26:03.025Z,0
2019-06-27T01:27:03.781Z,0
2019-06-27T01:28:04.465Z,0
2019-06-27T01:29:05.127Z,0
2019-06-27T01:30:05.808Z,0
2019-06-27T01:31:06.470Z,0
2019-06-27T01:32:07.160Z,0
2019-06-27T01:33:07.825Z,0
2019-06-27T01:34:08.518Z,0
2019-06-27T01:35:09.182Z,0
2019-06-27T01:36:09.873Z,0
2019-06-27T01:37:10.566Z,0
2019-06-27T01:38:11.228Z,0
2019-06-27T01:39:11.921Z,0
2019-06-27T01:40:12.612Z,0
2019-06-27T01:41:13.275Z,0
2019-06-27T01:42:13.935Z,0
2019-06-27T01:43:14.622Z,0
2019-06-27T01:44:15.301Z,0
2019-06-27T01:45:16.017Z,0
2019-06-27T01:46:16.702Z,0
2019-06-27T01:47:17.394Z,0
2019-06-27T01:48:18.075Z,0
2019-06-27T01:49:18.758Z,0
2019-06-27T01:50:19.451Z,0
2019-06-27T01:51:20.144Z,0
2019-06-27T01:52:20.824Z,0
2019-06-27T01:53:21.491Z,0
2019-06-27T01:54:22.184Z,0
2019-06-27T01:55:22.857Z,0
2019-06-27T01:56:23.561Z,0
2019-06-27T01:57:24.209Z,0
2019-06-27T01:58:24.901Z,0
2019-06-27T01:59:25.596Z,0
2019-06-27T02:00:26.261Z,0
2019-06-27T02:01:26.952Z,0
2019-06-27T02:02:27.617Z,0
2019-06-27T02:03:28.274Z,0
2019-06-27T02:04:28.964Z,0
2019-06-27T02:05:29.667Z,0
2019-06-27T02:06:30.325Z,0
2019-06-27T02:07:31.015Z,0
2019-06-27T02:08:31.712Z,0
2019-06-27T02:09:33.532Z,0
2019-06-27T02:10:33.160Z,0
2019-06-27T02:11:33.821Z,0
2019-06-27T02:12:34.483Z,0
2019-06-27T02:13:35.147Z,0
2019-06-27T02:14:35.811Z,0
2019-06-27T02:15:36.517Z,0
2019-06-27T02:16:37.233Z,0
2019-06-27T02:17:37.928Z,0
2019-06-27T02:18:38.625Z,0
2019-06-27T02:19:39.351Z,4
2019-06-27T02:20:40.015Z,4
2019-06-27T02:21:40.702Z,4
2019-06-27T02:22:41.367Z,0
2019-06-27T02:23:42.055Z,4
2019-06-27T02:24:42.734Z,4
2019-06-27T02:25:43.407Z,8
2019-06-27T02:26:44.100Z,4
2019-06-27T02:27:44.789Z,4
2019-06-27T02:28:45.496Z,8
2019-06-27T02:29:46.169Z,8
2019-06-27T02:30:46.862Z,8
2019-06-27T02:31:47.522Z,8
2019-06-27T02:32:48.209Z,8
2019-06-27T02:33:48.877Z,12
2019-06-27T02:34:49.539Z,12
2019-06-27T02:35:50.231Z,16
2019-06-27T02:36:50.954Z,16
2019-06-27T02:37:51.637Z,16
2019-06-27T02:38:52.299Z,20
2019-06-27T02:39:52.991Z,24
2019-06-27T02:40:58.277Z,28
2019-06-27T02:41:54.343Z,28
2019-06-27T02:42:55.006Z,32
2019-06-27T02:43:55.729Z,36
2019-06-27T02:44:56.413Z,40
2019-06-27T02:45:57.060Z,44
2019-06-27T02:46:57.769Z,48
2019-06-27T02:47:58.446Z,52
2019-06-27T02:48:59.144Z,60
2019-06-27T02:49:59.847Z,68
2019-06-27T02:51:00.532Z,76
2019-06-27T02:52:01.223Z,88
2019-06-27T02:53:01.983Z,92
2019-06-27T02:54:02.642Z,104
2019-06-27T02:55:03.349Z,112
2019-06-27T02:56:04.016Z,128
2019-06-27T02:57:04.676Z,136
2019-06-27T02:58:27.454Z,148
2019-06-27T02:59:06.993Z,160
2019-06-27T03:00:07.664Z,180
2019-06-27T03:01:08.330Z,188
2019-06-27T03:02:09.016Z,204
2019-06-27T03:03:09.682Z,224
2019-06-27T03:04:10.376Z,252
2019-06-27T03:05:11.047Z,268
2019-06-27T03:06:11.706Z,288
2019-06-27T03:07:12.377Z,300
2019-06-27T03:08:13.067Z,320
2019-06-27T03:09:13.764Z,336
2019-06-27T03:10:14.428Z,364
2019-06-27T03:11:15.131Z,396
2019-06-27T03:12:15.806Z,416
2019-06-27T03:13:16.504Z,424
2019-06-27T03:14:17.192Z,448
2019-06-27T03:15:17.849Z,484
2019-06-27T03:16:18.545Z,516
2019-06-27T03:17:19.234Z,532
2019-06-27T03:18:19.950Z,572
2019-06-27T03:19:20.647Z,612
2019-06-27T03:20:21.344Z,644
2019-06-27T03:21:22.017Z,688
2019-06-27T03:22:22.686Z,712
2019-06-27T03:23:23.376Z,732
2019-06-27T03:24:24.070Z,744
2019-06-27T03:25:24.731Z,772
2019-06-27T03:26:25.449Z,820
2019-06-27T03:27:26.124Z,852
2019-06-27T03:28:45.012Z,868
2019-06-27T03:29:27.512Z,900
2019-06-27T03:30:28.426Z,936
2019-06-27T03:31:29.088Z,960
2019-06-27T03:32:29.752Z,988
2019-06-27T03:33:30.442Z,1012
2019-06-27T03:34:31.109Z,1048
2019-06-27T03:35:31.789Z,1092
2019-06-27T03:36:32.438Z,1120
2019-06-27T03:37:33.099Z,1164
2019-06-27T03:38:33.766Z,1204
2019-06-27T03:39:34.427Z,1260
2019-06-27T03:40:35.091Z,1284
2019-06-27T03:41:35.783Z,1296
2019-06-27T03:42:36.444Z,1356
2019-06-27T03:43:37.137Z,1408
2019-06-27T03:44:37.804Z,1424
2019-06-27T03:45:38.512Z,1500
2019-06-27T03:46:39.166Z,1556
2019-06-27T03:47:39.840Z,1600
2019-06-27T03:48:40.598Z,1624
2019-06-27T03:49:41.190Z,1688
2019-06-27T03:50:41.905Z,1760
2019-06-27T03:51:42.597Z,1948
2019-06-27T03:52:43.285Z,2076
2019-06-27T03:53:43.948Z,2212
2019-06-27T03:54:44.615Z,2388
2019-06-27T03:55:45.278Z,2548
2019-06-27T03:56:45.949Z,2764
2019-06-27T03:57:46.663Z,2684
2019-06-27T03:58:47.349Z,2636
2019-06-27T03:59:48.070Z,2784
2019-06-27T04:00:48.744Z,2796
2019-06-27T04:01:49.414Z,3044
2019-06-27T04:02:50.127Z,3032
2019-06-27T04:03:50.819Z,3028
2019-06-27T04:04:51.484Z,3096
2019-06-27T04:05:52.329Z,3128
2019-06-27T04:06:53.057Z,2976
2019-06-27T04:07:53.756Z,3008
2019-06-27T04:08:54.462Z,3260
2019-06-27T04:09:55.151Z,3440
2019-06-27T04:10:55.841Z,3228
2019-06-27T04:11:56.552Z,2876
2019-06-27T04:12:57.234Z,3084
2019-06-27T04:13:57.955Z,3328
2019-06-27T04:14:58.641Z,3196
2019-06-27T04:15:59.336Z,3076
2019-06-27T04:17:00.024Z,3048
2019-06-27T04:18:00.704Z,3448
2019-06-27T04:19:01.408Z,3556
2019-06-27T04:20:02.107Z,3476
2019-06-27T04:21:02.799Z,3740
2019-06-27T04:22:03.483Z,4020
2019-06-27T04:23:04.248Z,4164
2019-06-27T04:24:04.870Z,4584
2019-06-27T04:25:05.577Z,4628
2019-06-27T04:26:06.255Z,4248
2019-06-27T04:27:06.959Z,4188
2019-06-27T04:28:07.620Z,4760
2019-06-27T04:29:08.311Z,5228
2019-06-27T04:30:09.014Z,5364
2019-06-27T04:31:09.711Z,4896
2019-06-27T04:32:10.443Z,4496
2019-06-27T04:33:11.090Z,4604
2019-06-27T04:34:11.796Z,4876
2019-06-27T04:35:12.487Z,4968
2019-06-27T04:36:13.158Z,4880
2019-06-27T04:37:13.882Z,5008
2019-06-27T04:38:14.561Z,5596
2019-06-27T04:39:15.318Z,5384
2019-06-27T04:40:15.951Z,4916
2019-06-27T04:41:16.630Z,5064
2019-06-27T04:42:17.285Z,5284
2019-06-27T04:43:17.960Z,5176
2019-06-27T04:44:18.660Z,5156
2019-06-27T04:45:19.359Z,5040
2019-06-27T04:46:20.058Z,5036
2019-06-27T04:47:20.776Z,5268
2019-06-27T04:48:21.454Z,5416
2019-06-27T04:49:22.161Z,5436
2019-06-27T04:50:22.818Z,5516
2019-06-27T04:51:23.530Z,5296
2019-06-27T04:52:24.212Z,5372
2019-06-27T04:53:24.883Z,6016
2019-06-27T04:54:25.594Z,6776
2019-06-27T04:55:26.258Z,6552
2019-06-27T04:56:26.953Z,6164
2019-06-27T04:57:27.637Z,6280
2019-06-27T04:58:28.313Z,6404
2019-06-27T04:59:28.991Z,7036
2019-06-27T05:00:29.659Z,8184
2019-06-27T05:01:30.343Z,8892
2019-06-27T05:02:31.088Z,8208
2019-06-27T05:03:31.727Z,7832
2019-06-27T05:04:32.426Z,8980
2019-06-27T05:05:33.092Z,10088
2019-06-27T05:06:33.758Z,10324
2019-06-27T05:07:34.518Z,9900
2019-06-27T05:08:35.239Z,9720
2019-06-27T05:09:35.931Z,9660
2019-06-27T05:10:36.641Z,9964
2019-06-27T05:11:37.370Z,9668
2019-06-27T05:12:38.042Z,8924
2019-06-27T05:13:38.715Z,7968
2019-06-27T05:14:39.402Z,8212
2019-06-27T05:15:40.076Z,10068
2019-06-27T05:16:40.743Z,10120
2019-06-27T05:17:41.439Z,9184
2019-06-27T05:18:42.132Z,7332
2019-06-27T05:19:42.812Z,7160
2019-06-27T05:20:43.480Z,7624
2019-06-27T05:21:44.176Z,8144
2019-06-27T05:22:44.842Z,6992
2019-06-27T05:23:45.509Z,7448
2019-06-27T05:24:46.226Z,9364
2019-06-27T05:25:46.903Z,7808
2019-06-27T05:26:47.567Z,7444
2019-06-27T05:27:48.252Z,7324
2019-06-27T05:28:48.932Z,7340
2019-06-27T05:29:49.598Z,8584
2019-06-27T05:30:51.525Z,8752
2019-06-27T05:31:51.948Z,8648
2019-06-27T05:32:52.629Z,10060
2019-06-27T05:33:53.330Z,10552
2019-06-27T05:34:54.003Z,18592
2019-06-27T05:35:54.672Z,10140
2019-06-27T05:36:55.370Z,14036
2019-06-27T05:37:56.039Z,9872
2019-06-27T05:38:56.705Z,14608
2019-06-27T05:39:57.405Z,10788
2019-06-27T05:40:58.072Z,12072
2019-06-27T05:41:58.740Z,13836
2019-06-27T05:42:59.407Z,12204
2019-06-27T05:44:00.084Z,10988
2019-06-27T05:45:00.776Z,11068
2019-06-27T05:46:01.477Z,11936
2019-06-27T05:47:02.210Z,21888
2019-06-27T05:48:02.902Z,30400
2019-06-27T05:49:03.579Z,23616
2019-06-27T05:50:04.252Z,36224
2019-06-27T05:51:04.940Z,32928
2019-06-27T05:52:05.626Z,28384
2019-06-27T05:53:06.329Z,10244
2019-06-27T05:54:07.026Z,8888
2019-06-27T05:55:07.723Z,8112
2019-06-27T05:56:08.445Z,7684
2019-06-27T05:57:09.138Z,9568
2019-06-27T05:58:09.825Z,9080
2019-06-27T05:59:10.490Z,9516
2019-06-27T06:00:26.734Z,10008
2019-06-27T06:01:12.819Z,10700
2019-06-27T06:02:13.508Z,10964
2019-06-27T06:03:14.175Z,17152
2019-06-27T06:04:14.890Z,12196
2019-06-27T06:05:15.589Z,9748
2019-06-27T06:06:16.296Z,10520
2019-06-27T06:07:16.971Z,14892
2019-06-27T06:08:17.666Z,13680
2019-06-27T06:09:18.335Z,13392
2019-06-27T06:10:19.007Z,13748
2019-06-27T06:11:19.705Z,15108
2019-06-27T06:12:20.402Z,18048
2019-06-27T06:13:21.073Z,20928
2019-06-27T06:14:21.749Z,21120
2019-06-27T06:15:22.436Z,22368
2019-06-27T06:16:23.102Z,23392
2019-06-27T06:17:23.799Z,23744
2019-06-27T06:18:24.526Z,21472
2019-06-27T06:19:25.228Z,18272
2019-06-27T06:20:25.900Z,15472
2019-06-27T06:21:26.567Z,14280
2019-06-27T06:22:27.268Z,14448
2019-06-27T06:23:27.964Z,15484
2019-06-27T06:24:28.675Z,16576
2019-06-27T06:25:29.371Z,16868
2019-06-27T06:26:30.052Z,15944
2019-06-27T06:27:30.763Z,15232
2019-06-27T06:28:31.464Z,14912
2019-06-27T06:29:32.151Z,13760
2019-06-27T06:30:43.992Z,12596
2019-06-27T06:31:33.570Z,13376
2019-06-27T06:32:34.247Z,15160
2019-06-27T06:33:34.945Z,15592
2019-06-27T06:34:35.614Z,15940
2019-06-27T06:35:36.332Z,17920
2019-06-27T06:36:37.013Z,19200
2019-06-27T06:37:37.715Z,20096
2019-06-27T06:38:38.390Z,19808
2019-06-27T06:39:39.100Z,23264
2019-06-27T06:40:39.817Z,18944
2019-06-27T06:41:40.502Z,16616
2019-06-27T06:42:41.185Z,15968
2019-06-27T06:43:41.882Z,15652
2019-06-27T06:44:42.555Z,14604
2019-06-27T06:45:43.229Z,14248
2019-06-27T06:46:43.911Z,12180
2019-06-27T06:47:44.596Z,12008
2019-06-27T06:48:45.271Z,12132
2019-06-27T06:49:45.940Z,18176
2019-06-27T06:50:46.608Z,27968
2019-06-27T06:51:47.305Z,13124
2019-06-27T06:52:47.973Z,15628
2019-06-27T06:53:48.678Z,12596
2019-06-27T06:54:49.386Z,12248
2019-06-27T06:55:50.092Z,13216
2019-06-27T06:56:50.807Z,14920
2019-06-27T06:57:51.505Z,17824
2019-06-27T06:58:52.172Z,14024
2019-06-27T06:59:52.847Z,32480
2019-06-27T07:01:01.561Z,21024
2019-06-27T07:01:55.199Z,25760
2019-06-27T07:02:55.887Z,20896
2019-06-27T07:03:56.583Z,21248
2019-06-27T07:04:57.259Z,16680
2019-06-27T07:05:57.927Z,18464
2019-06-27T07:06:58.693Z,27680
2019-06-27T07:07:59.326Z,46496
2019-06-27T07:09:00.021Z,45024
2019-06-27T07:10:00.700Z,52384
2019-06-27T07:11:01.421Z,43136
2019-06-27T07:12:02.109Z,44960
2019-06-27T07:13:02.819Z,70752
2019-06-27T07:14:03.542Z,23648
2019-06-27T07:15:04.199Z,28544
2019-06-27T07:16:04.901Z,33408
2019-06-27T07:17:05.605Z,24128
2019-06-27T07:18:06.302Z,23104
2019-06-27T07:19:07.010Z,28448
2019-06-27T07:20:07.703Z,13672
2019-06-27T07:21:08.377Z,52544
2019-06-27T07:22:09.068Z,16448
2019-06-27T07:23:09.762Z,14984
2019-06-27T07:24:10.447Z,12844
2019-06-27T07:25:11.180Z,11292
2019-06-27T07:26:11.851Z,13304
2019-06-27T07:27:12.547Z,21600
2019-06-27T07:28:13.226Z,67904
2019-06-27T07:29:13.895Z,67040
2019-06-27T07:30:14.606Z,66240
2019-06-27T07:31:18.203Z,72480
2019-06-27T07:32:15.969Z,39040
2019-06-27T07:33:16.638Z,70848
2019-06-27T07:34:17.309Z,70080
2019-06-27T07:35:18.433Z,68736
2019-06-27T07:36:18.946Z,69056
2019-06-27T07:37:19.629Z,71200
2019-06-27T07:38:20.290Z,71936
2019-06-27T07:39:20.959Z,73824
2019-06-27T07:40:21.663Z,25600
2019-06-27T07:41:22.367Z,81376
2019-06-27T07:42:23.079Z,79264
2019-06-27T07:43:23.778Z,71360
2019-06-27T07:44:24.479Z,65472
2019-06-27T07:45:25.181Z,66944
2019-06-27T07:46:26.123Z,19168
2019-06-27T07:47:26.824Z,76576
2019-06-27T07:48:27.493Z,76736
2019-06-27T07:49:28.168Z,75232
2019-06-27T07:50:28.844Z,74848
2019-06-27T07:51:29.549Z,74592
2019-06-27T07:52:30.322Z,71520
2019-06-27T07:53:30.956Z,60640
2019-06-27T07:54:31.627Z,34080
2019-06-27T07:55:32.310Z,61984
2019-06-27T07:56:32.981Z,78656
2019-06-27T07:57:33.676Z,81184
2019-06-27T07:58:34.380Z,79168
2019-06-27T07:59:35.078Z,76160
2019-06-27T08:00:35.801Z,72416
2019-06-27T08:01:36.482Z,71872
2019-06-27T08:02:37.156Z,69056
2019-06-27T08:03:37.854Z,67008
2019-06-27T08:04:38.543Z,24096
2019-06-27T08:05:39.195Z,81152
2019-06-27T08:06:39.869Z,86688
2019-06-27T08:07:40.767Z,83808
2019-06-27T08:08:41.267Z,91104
2019-06-27T08:09:41.952Z,91648
2019-06-27T08:10:42.635Z,91008
2019-06-27T08:11:43.347Z,86816
2019-06-27T08:12:44.029Z,71616
2019-06-27T08:13:44.703Z,86400
2019-06-27T08:14:45.426Z,87104
2019-06-27T08:15:46.107Z,87456
2019-06-27T08:16:46.833Z,83328
2019-06-27T08:17:47.516Z,31488
2019-06-27T08:18:48.188Z,79456
2019-06-27T08:19:48.864Z,66176
2019-06-27T08:20:49.538Z,73536
2019-06-27T08:21:50.212Z,70080
2019-06-27T08:22:50.899Z,71392
2019-06-27T08:23:51.612Z,76768
2019-06-27T08:24:52.297Z,78016
2019-06-27T08:25:52.969Z,79168
2019-06-27T08:26:53.641Z,77696
2019-06-27T08:27:54.374Z,77824
2019-06-27T08:28:55.055Z,76384
2019-06-27T08:29:55.773Z,77536
2019-06-27T08:30:56.601Z,76032
2019-06-27T08:31:57.289Z,74208
2019-06-27T08:32:57.994Z,71584
2019-06-27T08:33:58.671Z,71488
2019-06-27T08:34:59.418Z,79008
2019-06-27T08:36:00.075Z,84224
2019-06-27T08:37:00.750Z,87744
2019-06-27T08:38:01.455Z,86464
2019-06-27T08:39:02.125Z,84320
2019-06-27T08:40:02.802Z,81824
2019-06-27T08:41:03.472Z,80000
2019-06-27T08:42:04.184Z,76736
2019-06-27T08:43:04.904Z,74784
2019-06-27T08:44:05.591Z,76768
2019-06-27T08:45:06.290Z,81152
2019-06-27T08:46:06.961Z,83552
2019-06-27T08:47:07.630Z,85120
2019-06-27T08:48:08.331Z,83680
2019-06-27T08:49:09.008Z,85984
2019-06-27T08:50:09.710Z,85280
2019-06-27T08:51:10.386Z,83328
2019-06-27T08:52:11.060Z,83296
2019-06-27T08:53:11.767Z,83616
2019-06-27T08:54:12.470Z,84288
2019-06-27T08:55:13.173Z,84160
2019-06-27T08:56:13.846Z,83904
2019-06-27T08:57:14.524Z,84288
2019-06-27T08:58:15.222Z,86240
2019-06-27T08:59:15.901Z,84064
2019-06-27T09:00:16.563Z,81632
2019-06-27T09:01:17.260Z,86944
2019-06-27T09:02:17.945Z,93024
2019-06-27T09:03:18.619Z,100352
2019-06-27T09:04:19.291Z,98464
2019-06-27T09:05:19.993Z,92992
2019-06-27T09:06:21.283Z,90112
2019-06-27T09:07:21.383Z,91744
2019-06-27T09:08:22.068Z,96832
2019-06-27T09:09:22.744Z,99840
2019-06-27T09:10:23.444Z,99104
2019-06-27T09:11:24.160Z,98176
2019-06-27T09:12:24.870Z,98144
2019-06-27T09:13:25.549Z,99808
2019-06-27T09:14:26.250Z,101728
2019-06-27T09:15:26.985Z,101376
2019-06-27T09:16:27.669Z,98912
2019-06-27T09:17:28.373Z,99680
2019-06-27T09:18:29.068Z,95776
2019-06-27T09:19:29.751Z,92736
2019-06-27T09:20:30.523Z,91040
2019-06-27T09:21:31.125Z,93888
2019-06-27T09:22:31.831Z,95584
2019-06-27T09:23:32.531Z,98144
2019-06-27T09:24:33.205Z,100608
2019-06-27T09:25:33.906Z,97760
2019-06-27T09:26:34.610Z,98112
2019-06-27T09:27:35.310Z,95872
2019-06-27T09:28:36.009Z,96384
2019-06-27T09:29:36.724Z,96448
2019-06-27T09:30:37.384Z,97216
2019-06-27T09:31:38.090Z,99968
2019-06-27T09:32:38.808Z,101088
2019-06-27T09:33:39.511Z,100672
2019-06-27T09:34:40.207Z,98656
2019-06-27T09:35:40.884Z,96960
2019-06-27T09:36:41.589Z,99136
2019-06-27T09:37:42.280Z,105216
2019-06-27T09:38:42.967Z,109856
2019-06-27T09:39:43.676Z,104192
2019-06-27T09:40:44.380Z,95680
2019-06-27T09:41:45.057Z,94656
2019-06-27T09:42:45.765Z,97376
2019-06-27T09:43:46.462Z,105280
2019-06-27T09:44:47.138Z,109888
2019-06-27T09:45:47.843Z,106880
2019-06-27T09:46:48.517Z,105120
2019-06-27T09:47:49.232Z,104864
2019-06-27T09:48:49.910Z,102912
2019-06-27T09:49:50.602Z,102400
2019-06-27T09:50:51.292Z,103744
2019-06-27T09:51:51.997Z,103584
2019-06-27T09:52:52.674Z,100512
2019-06-27T09:53:53.346Z,98400
2019-06-27T09:54:54.029Z,97792
2019-06-27T09:55:54.728Z,97568
2019-06-27T09:56:55.417Z,99744
2019-06-27T09:57:56.113Z,100896
2019-06-27T09:58:56.814Z,96480
2019-06-27T09:59:57.489Z,96704
2019-06-27T10:00:58.191Z,99040
2019-06-27T10:01:58.917Z,102752
2019-06-27T10:02:59.621Z,103040
2019-06-27T10:04:00.310Z,103776
2019-06-27T10:05:01.013Z,104032
2019-06-27T10:06:01.700Z,110080
2019-06-27T10:07:02.420Z,116160
2019-06-27T10:08:03.106Z,121056
2019-06-27T10:09:03.766Z,122144
2019-06-27T10:10:04.476Z,116224
2019-06-27T10:11:05.173Z,112224
2019-06-27T10:12:05.867Z,110560
2019-06-27T10:13:06.557Z,107488
2019-06-27T10:14:07.264Z,103424
2019-06-27T10:15:07.956Z,97984
2019-06-27T10:16:08.633Z,91360
2019-06-27T10:17:09.322Z,89312
2019-06-27T10:18:09.991Z,91840
2019-06-27T10:19:10.666Z,97248
2019-06-27T10:20:11.342Z,103648
2019-06-27T10:21:12.048Z,103904
2019-06-27T10:22:12.757Z,103616
2019-06-27T10:23:13.430Z,102240
2019-06-27T10:24:14.105Z,102816
2019-06-27T10:25:14.786Z,101184
2019-06-27T10:26:15.459Z,99392
2019-06-27T10:27:16.165Z,96736
2019-06-27T10:28:16.837Z,94688
2019-06-27T10:29:17.514Z,96128
2019-06-27T10:30:18.219Z,100896
2019-06-27T10:31:18.921Z,97728
2019-06-27T10:32:19.608Z,93760
2019-06-27T10:33:20.334Z,86944
2019-06-27T10:34:21.016Z,87040
2019-06-27T10:35:21.727Z,93184
2019-06-27T10:36:22.434Z,101312
2019-06-27T10:37:23.152Z,107040
2019-06-27T10:38:23.824Z,105696
2019-06-27T10:39:24.524Z,99232
2019-06-27T10:40:25.210Z,96928
2019-06-27T10:41:25.915Z,99264
2019-06-27T10:42:26.624Z,103936
2019-06-27T10:43:27.303Z,108544
2019-06-27T10:44:28.030Z,107360
2019-06-27T10:45:28.693Z,104064
2019-06-27T10:46:29.369Z,101664
2019-06-27T10:47:30.084Z,99616
2019-06-27T10:48:30.781Z,101344
2019-06-27T10:49:31.586Z,101760
2019-06-27T10:50:32.202Z,101952
2019-06-27T10:51:32.861Z,102496
2019-06-27T10:52:33.536Z,106496
2019-06-27T10:53:34.219Z,107488
2019-06-27T10:54:34.915Z,106752
2019-06-27T10:55:35.589Z,103232
2019-06-27T10:56:39.732Z,97856
2019-06-27T10:57:37.963Z,99360
2019-06-27T10:58:38.668Z,100800
2019-06-27T10:59:39.405Z,100576
2019-06-27T11:00:40.092Z,100736
2019-06-27T11:01:40.764Z,102848
2019-06-27T11:02:41.441Z,104704
2019-06-27T11:03:42.156Z,107584
2019-06-27T11:04:42.832Z,109792
2019-06-27T11:05:43.507Z,109504
2019-06-27T11:06:44.187Z,107552
2019-06-27T11:07:44.871Z,107200
2019-06-27T11:08:45.562Z,106848
2019-06-27T11:09:46.239Z,107040
2019-06-27T11:10:46.929Z,104864
2019-06-27T11:11:47.615Z,102560
2019-06-27T11:12:48.311Z,102528
2019-06-27T11:13:58.219Z,107456
2019-06-27T11:14:59.155Z,112448
2019-06-27T11:15:51.371Z,111328
2019-06-27T11:16:52.056Z,107200
2019-06-27T11:17:52.723Z,102432
2019-06-27T11:18:53.399Z,104512
2019-06-27T11:19:54.109Z,111776
2019-06-27T11:20:54.820Z,118784
2019-06-27T11:21:55.488Z,120864
2019-06-27T11:22:56.274Z,115456
2019-06-27T11:23:56.930Z,108608
2019-06-27T11:24:57.622Z,105056
2019-06-27T11:25:58.331Z,104512
2019-06-27T11:26:59.049Z,107360
2019-06-27T11:27:59.753Z,109920
2019-06-27T11:29:00.467Z,111200
2019-06-27T11:30:01.177Z,111712
2019-06-27T11:31:01.932Z,112352
2019-06-27T11:32:02.616Z,111392
2019-06-27T11:33:03.395Z,111264
2019-06-27T11:34:04.062Z,110208
2019-06-27T11:35:04.752Z,111872
2019-06-27T11:36:05.426Z,114720
2019-06-27T11:37:06.133Z,115392
2019-06-27T11:38:06.841Z,109280
2019-06-27T11:39:07.543Z,102528
2019-06-27T11:40:11.681Z,96096
2019-06-27T11:41:08.920Z,94240
2019-06-27T11:42:09.620Z,96288
2019-06-27T11:43:10.300Z,99840
2019-06-27T11:44:10.981Z,99552
2019-06-27T11:45:11.661Z,93376
2019-06-27T11:46:12.361Z,86176
2019-06-27T11:47:13.065Z,86848
2019-06-27T11:48:13.741Z,93504
2019-06-27T11:49:14.449Z,101600
2019-06-27T11:50:15.151Z,111168
2019-06-27T11:51:15.827Z,114560
2019-06-27T11:52:16.586Z,111040
2019-06-27T11:53:17.271Z,106016
2019-06-27T11:54:17.946Z,98496
2019-06-27T11:55:18.681Z,94464
2019-06-27T11:56:19.366Z,96064
2019-06-27T11:57:20.074Z,101088
2019-06-27T11:58:20.759Z,107808
2019-06-27T11:59:21.467Z,112000
2019-06-27T12:00:22.173Z,116288
2019-06-27T12:01:22.853Z,121024
2019-06-27T12:02:23.532Z,123744
2019-06-27T12:03:24.208Z,119168
2019-06-27T12:04:24.880Z,109376
2019-06-27T12:05:25.589Z,99616
2019-06-27T12:06:26.312Z,94400
2019-06-27T12:07:26.971Z,93600
2019-06-27T12:08:27.674Z,99424
2019-06-27T12:09:28.382Z,109536
2019-06-27T12:10:29.060Z,118880
2019-06-27T12:11:29.803Z,119872
2019-06-27T12:12:30.473Z,115744
2019-06-27T12:13:31.212Z,109248
2019-06-27T12:14:31.897Z,106048
2019-06-27T12:15:32.570Z,105504
2019-06-27T12:16:33.261Z,105248
2019-06-27T12:17:33.956Z,103904
2019-06-27T12:18:34.628Z,102304
2019-06-27T12:19:35.311Z,98688
2019-06-27T12:20:36.038Z,95488
2019-06-27T12:21:36.720Z,94560
2019-06-27T12:22:37.397Z,97312
2019-06-27T12:23:38.102Z,103072
2019-06-27T12:24:38.799Z,105664
2019-06-27T12:25:39.511Z,106528
2019-06-27T12:26:40.217Z,106400
2019-06-27T12:27:40.886Z,103840
2019-06-27T12:28:41.562Z,100704
2019-06-27T12:29:42.243Z,101280
2019-06-27T12:30:42.948Z,105984
2019-06-27T12:31:43.628Z,110336
2019-06-27T12:32:51.576Z,109344
2019-06-27T12:33:45.012Z,103296
2019-06-27T12:34:45.690Z,95264
2019-06-27T12:35:46.424Z,91040
2019-06-27T12:36:47.115Z,92672
2019-06-27T12:37:47.830Z,97152
2019-06-27T12:38:48.536Z,99520
2019-06-27T12:39:49.210Z,96896
2019-06-27T12:40:49.885Z,92864
2019-06-27T12:41:50.593Z,91168
2019-06-27T12:42:51.271Z,92224
2019-06-27T12:43:51.947Z,95872
2019-06-27T12:44:52.623Z,101824
2019-06-27T12:45:53.302Z,107328
2019-06-27T12:46:53.983Z,111520
2019-06-27T12:47:54.695Z,108256
2019-06-27T12:48:55.489Z,101952
2019-06-27T12:50:02.802Z,93632
2019-06-27T12:50:57.709Z,88032
2019-06-27T12:51:58.385Z,88544
2019-06-27T12:52:59.093Z,90112
2019-06-27T12:53:59.768Z,89088
2019-06-27T12:55:00.474Z,86464
2019-06-27T12:56:01.183Z,82432
2019-06-27T12:57:01.858Z,83744
2019-06-27T12:58:02.592Z,95264
2019-06-27T12:59:03.288Z,110976
2019-06-27T13:00:08.061Z,121280
2019-06-27T13:01:05.782Z,120608
2019-06-27T13:02:06.397Z,110176
2019-06-27T13:03:07.071Z,98080
2019-06-27T13:04:22.396Z,90144
2019-06-27T13:05:08.489Z,87104
2019-06-27T13:06:09.174Z,89024
2019-06-27T13:07:09.868Z,92928
2019-06-27T13:08:10.581Z,96320
2019-06-27T13:09:11.259Z,97120
2019-06-27T13:10:11.933Z,91584
2019-06-27T13:11:12.610Z,88096
2019-06-27T13:12:13.285Z,93248
2019-06-27T13:13:14.004Z,99872
2019-06-27T13:14:14.704Z,103456
2019-06-27T13:15:15.392Z,98496
2019-06-27T13:16:16.071Z,92832
2019-06-27T13:17:16.747Z,88160
2019-06-27T13:18:17.426Z,87840
2019-06-27T13:19:18.098Z,89472
2019-06-27T13:20:18.820Z,92832
2019-06-27T13:21:19.518Z,97696
2019-06-27T13:22:20.188Z,99424
2019-06-27T13:23:20.893Z,97344
2019-06-27T13:24:21.571Z,92544
2019-06-27T13:25:22.273Z,88416